Time;durP1;ratioP1;P1;durP2;ratioP2;P2;SDS_P1;SDS_P2;PMS_P1;PMS_P2;Temp;Humidity;BMP_temperature;BMP_pressure;BME280_temperature;BME280_humidity;BME280_pressure;Samples;Min_cycle;Max_cycle;Signal;HPM_P1;HPM_P2
2022/10/20 00:01:11;;;;;;;39.33;26.07;;;;;;;11.62;93.67;99497.93;1717211;83;21200;-80
2022/10/20 00:04:16;;;;;;;37.65;26.45;;;;;;;11.70;93.21;99495.03;1717060;83;21192;-80
2022/10/20 00:07:21;;;;;;;37.90;26.20;;;;;;;11.60;92.99;99490.45;1718312;83;21188;-80
2022/10/20 00:10:28;;;;;;;46.08;27.48;;;;;;;11.64;93.07;99488.48;1717201;83;21232;-80
2022/10/20 00:13:34;;;;;;;45.60;26.85;;;;;;;11.64;92.72;99482.16;1718335;83;21176;-80
2022/10/20 00:16:44;;;;;;;38.88;25.68;;;;;;;11.39;93.57;99479.08;1717033;83;21224;-78
2022/10/20 00:19:57;;;;;;;34.55;22.73;;;;;;;11.65;93.50;99475.63;1717041;83;21180;-79
2022/10/20 00:23:04;;;;;;;40.78;26.77;;;;;;;11.48;92.89;99469.13;1718372;83;21240;-79
2022/10/20 00:26:17;;;;;;;39.80;26.07;;;;;;;11.53;92.94;99467.16;1718408;83;21251;-79
2022/10/20 00:29:23;;;;;;;38.65;25.95;;;;;;;11.81;91.26;99462.95;1717078;83;21219;-79
2022/10/20 00:32:29;;;;;;;44.10;27.73;;;;;;;11.58;91.64;99466.02;1716973;83;21785;-78
2022/10/20 00:35:38;;;;;;;37.13;26.33;;;;;;;11.89;90.20;99457.30;1716993;83;21212;-79
2022/10/20 00:38:42;;;;;;;38.23;26.33;;;;;;;11.75;89.50;99465.97;1718318;83;21727;-78
2022/10/20 00:41:49;;;;;;;40.45;27.25;;;;;;;11.39;90.92;99461.28;1718654;83;21311;-78
2022/10/20 00:45:02;;;;;;;43.28;25.23;;;;;;;11.19;91.91;99460.61;1717940;83;21913;-78
2022/10/20 00:48:13;;;;;;;39.30;25.08;;;;;;;11.24;91.62;99458.15;1719199;83;21204;-78
2022/10/20 00:51:22;;;;;;;87.70;24.35;;;;;;;11.18;91.55;99451.25;1717095;83;21224;-78
2022/10/20 00:54:31;;;;;;;60.33;26.42;;;;;;;11.10;92.08;99459.08;1718284;83;21232;-78
2022/10/20 00:57:38;;;;;;;91.67;23.83;;;;;;;11.00;92.40;99454.48;1718410;83;21200;-78
2022/10/20 01:00:46;;;;;;;173.90;24.12;;;;;;;11.23;91.58;99461.91;1716616;83;21263;-79
2022/10/20 01:03:56;;;;;;;207.32;21.77;;;;;;;11.15;91.26;99454.38;1718280;83;21762;-78
2022/10/20 01:07:02;;;;;;;;;;;;;;;11.11;91.29;99450.38;1721852;83;21763;-78
2022/10/20 01:10:08;;;;;;;167.30;21.65;;;;;;;11.09;91.36;99454.66;1719279;83;20192;-79
2022/10/20 01:13:21;;;;;;;211.05;26.00;;;;;;;11.13;91.21;99449.64;1717703;83;21259;-78
2022/10/20 01:16:51;;;;;;;243.20;27.45;;;;;;;11.10;91.13;99450.03;1716826;83;21287;-78
2022/10/20 01:20:07;;;;;;;;;;;;;;;11.12;91.39;99457.53;1720907;83;21287;-79
2022/10/20 01:23:54;;;;;;;157.47;27.05;;;;;;;11.52;90.37;99452.59;1718268;83;20663;-78
2022/10/20 01:27:42;;;;;;;42.90;25.88;;;;;;;11.11;90.93;99451.74;1718409;83;21188;-78
2022/10/20 01:30:53;;;;;;;49.05;23.62;;;;;;;11.10;91.63;99457.71;1717828;83;21236;-78
2022/10/20 01:34:06;;;;;;;48.55;24.45;;;;;;;11.06;91.49;99461.08;1718369;83;21798;-78
2022/10/20 01:37:40;;;;;;;63.00;22.60;;;;;;;10.93;91.35;99457.19;1718323;83;21192;-78
2022/10/20 01:40:57;;;;;;;60.88;23.40;;;;;;;10.56;92.72;99454.78;1718404;83;21181;-78
2022/10/20 01:44:03;;;;;;;50.95;22.30;;;;;;;10.46;93.04;99449.66;1718492;83;22510;-78
2022/10/20 01:47:08;;;;;;;55.28;21.75;;;;;;;10.49;93.19;99450.11;1717163;83;21208;-78
2022/10/20 01:50:09;;;;;;;44.88;22.62;;;;;;;10.46;92.99;99446.39;1718278;83;21750;-78
2022/10/20 01:53:05;;;;;;;37.90;20.05;;;;;;;10.51;92.65;99444.44;1718543;83;21192;-78
2022/10/20 01:55:53;;;;;;;37.20;22.82;;;;;;;10.65;92.14;99441.30;1699010;83;21192;-78
2022/10/20 01:58:57;;;;;;;39.03;23.38;;;;;;;10.70;91.86;99441.55;1717882;83;21204;-78
2022/10/20 02:02:39;;;;;;;43.73;22.02;;;;;;;10.60;92.20;99441.05;1720196;83;21851;-78
2022/10/20 02:06:06;;;;;;;35.03;24.02;;;;;;;10.67;92.37;99440.56;1722307;83;21764;-80
2022/10/20 02:09:26;;;;;;;40.17;24.87;;;;;;;10.72;92.03;99430.71;1720823;83;21240;-80
2022/10/20 02:12:34;;;;;;;37.70;22.58;;;;;;;10.62;92.64;99438.42;1721447;83;21224;-80
2022/10/20 02:15:41;;;;;;;32.55;20.97;;;;;;;10.59;93.03;99435.27;1722135;83;21239;-80
2022/10/20 02:18:49;;;;;;;40.80;23.00;;;;;;;10.44;93.82;99437.55;1722174;83;21204;-80
2022/10/20 02:21:59;;;;;;;37.40;22.25;;;;;;;10.44;93.66;99429.36;1721809;83;21753;-80
2022/10/20 02:24:58;;;;;;;40.00;24.15;;;;;;;10.49;93.79;99432.84;1722296;83;21210;-80
2022/10/20 02:28:03;;;;;;;32.48;22.95;;;;;;;10.35;93.97;99437.86;1722147;83;21763;-80
2022/10/20 02:31:09;;;;;;;32.93;23.10;;;;;;;10.08;95.23;99441.69;1722172;83;22617;-80
2022/10/20 02:34:15;;;;;;;34.45;23.85;;;;;;;10.32;94.84;99421.87;1725942;83;21203;-80
2022/10/20 02:37:20;;;;;;;31.37;21.57;;;;;;;10.56;93.66;99426.08;1722201;83;21251;-79
2022/10/20 02:40:26;;;;;;;32.75;23.15;;;;;;;10.56;93.04;99427.44;1722173;83;21212;-79
2022/10/20 02:43:34;;;;;;;34.60;22.77;;;;;;;10.24;94.50;99420.95;1720938;83;21176;-80
2022/10/20 02:46:41;;;;;;;28.10;21.15;;;;;;;10.60;93.94;99417.80;1720898;83;21220;-79
2022/10/20 02:49:47;;;;;;;33.60;22.05;;;;;;;10.59;93.01;99412.02;1722222;83;21732;-79
2022/10/20 02:52:52;;;;;;;29.40;20.27;;;;;;;10.54;93.08;99419.94;1721399;83;21264;-79
2022/10/20 02:55:57;;;;;;;28.30;18.90;;;;;;;10.45;93.34;99411.91;1722247;83;21220;-79
2022/10/20 02:59:03;;;;;;;28.52;19.87;;;;;;;10.24;94.48;99401.81;1722293;83;21735;-79
2022/10/20 03:02:10;;;;;;;31.25;19.48;;;;;;;10.39;94.08;99404.47;1721017;83;21291;-79
2022/10/20 03:05:19;;;;;;;29.70;21.97;;;;;;;10.30;94.52;99401.55;1721951;83;21207;-79
2022/10/20 03:08:25;;;;;;;27.07;19.55;;;;;;;10.07;95.58;99398.14;1721736;83;21196;-80
2022/10/20 03:11:31;;;;;;;28.27;19.60;;;;;;;10.06;96.04;99397.82;1721857;83;22570;-80
2022/10/20 03:14:37;;;;;;;29.87;17.42;;;;;;;10.04;96.30;99402.65;1721678;83;21279;-80
2022/10/20 03:17:43;;;;;;;30.20;19.57;;;;;;;10.11;95.84;99403.55;1721278;83;21284;-79
2022/10/20 03:20:50;;;;;;;29.55;18.27;;;;;;;10.14;95.68;99407.27;1720410;83;21200;-79
2022/10/20 03:23:57;;;;;;;30.92;19.62;;;;;;;10.10;96.12;99403.22;1720475;83;21205;-79
2022/10/20 03:26:56;;;;;;;27.30;20.50;;;;;;;10.13;95.33;99411.05;1721898;83;21747;-79
2022/10/20 03:30:01;;;;;;;27.58;19.15;;;;;;;10.09;95.52;99408.38;1721833;83;21192;-79
2022/10/20 03:33:06;;;;;;;28.77;19.95;;;;;;;10.18;95.10;99417.61;1721057;83;21220;-79
2022/10/20 03:36:13;;;;;;;33.78;19.73;;;;;;;10.01;95.34;99415.32;1721681;83;21834;-79
2022/10/20 03:39:18;;;;;;;27.00;20.20;;;;;;;9.99;95.47;99411.42;1721636;83;21192;-79
2022/10/20 03:42:24;;;;;;;25.62;18.50;;;;;;;10.18;94.49;99400.37;1721534;83;21196;-79
2022/10/20 03:45:30;;;;;;;30.90;19.62;;;;;;;10.12;93.80;99392.44;1720220;83;21755;-79
2022/10/20 03:48:35;;;;;;;28.52;18.52;;;;;;;10.01;94.31;99390.73;1720848;83;21256;-79
2022/10/20 03:51:41;;;;;;;28.20;18.73;;;;;;;10.07;94.66;99381.25;1721563;83;21751;-79
2022/10/20 03:54:49;;;;;;;27.75;17.73;;;;;;;10.07;94.82;99384.48;1721595;83;21196;-79
2022/10/20 03:57:54;;;;;;;23.92;17.95;;;;;;;10.31;93.61;99379.19;1721635;83;21188;-79
2022/10/20 04:01:01;;;;;;;28.45;19.23;;;;;;;10.14;93.73;99370.38;1721573;83;21826;-80
2022/10/20 04:04:08;;;;;;;24.57;17.67;;;;;;;10.28;93.36;99373.58;1718653;83;21226;-79
2022/10/20 04:07:14;;;;;;;27.50;18.82;;;;;;;10.31;92.81;99363.63;1716968;83;21200;-79
2022/10/20 04:10:20;;;;;;;26.60;17.62;;;;;;;9.99;93.85;99358.16;1717251;83;21870;-79
2022/10/20 04:13:27;;;;;;;22.07;17.60;;;;;;;10.01;94.17;99349.75;1717832;83;21227;-78
2022/10/20 04:16:28;;;;;;;27.98;17.02;;;;;;;9.87;94.80;99349.62;1718390;83;21767;-79
2022/10/20 04:19:33;;;;;;;25.15;18.32;;;;;;;9.91;94.38;99353.66;1717264;83;21239;-79
2022/10/20 04:22:40;;;;;;;26.82;17.57;;;;;;;9.90;94.50;99360.69;1718239;83;21204;-79
2022/10/20 04:25:48;;;;;;;30.62;19.57;;;;;;;10.14;93.25;99369.85;1718211;83;21814;-78
2022/10/20 04:28:49;;;;;;;36.60;22.42;;;;;;;10.02;93.11;99376.91;1716863;83;21363;-79
2022/10/20 04:31:55;;;;;;;31.17;20.52;;;;;;;9.74;94.57;99370.00;1718172;83;21208;-78
2022/10/20 04:35:02;;;;;;;31.02;18.87;;;;;;;9.68;94.73;99361.19;1716878;83;21742;-78
2022/10/20 04:38:08;;;;;;;27.05;18.37;;;;;;;9.79;94.16;99362.06;1718318;83;21731;-78
2022/10/20 04:41:16;;;;;;;30.80;19.02;;;;;;;9.69;94.02;99365.11;1718322;83;21188;-78
2022/10/20 04:44:21;;;;;;;24.92;18.10;;;;;;;10.02;93.05;99371.92;1717689;83;21287;-78
2022/10/20 04:47:28;;;;;;;29.72;17.90;;;;;;;9.62;94.23;99375.63;1718368;83;21196;-80
2022/10/20 04:50:33;;;;;;;26.00;17.70;;;;;;;9.76;94.22;99375.25;1717114;83;21275;-79
2022/10/20 04:53:39;;;;;;;32.10;17.30;;;;;;;9.91;94.08;99378.23;1718124;83;21236;-80
2022/10/20 04:56:46;;;;;;;30.32;16.93;;;;;;;10.01;93.36;99382.53;1718250;83;21791;-80
2022/10/20 04:59:52;;;;;;;25.40;13.78;;;;;;;10.04;93.63;99384.89;1718312;83;21252;-79
2022/10/20 05:02:58;;;;;;;29.85;16.30;;;;;;;10.36;92.81;99383.53;1699811;83;21743;-79
2022/10/20 05:06:20;;;;;;;24.45;14.35;;;;;;;10.14;93.55;99384.88;1719102;83;21235;-79
2022/10/20 05:09:32;;;;;;;26.77;14.95;;;;;;;10.14;94.18;99382.67;1633112;87;21299;-79
2022/10/20 05:12:38;;;;;;;26.77;14.20;;;;;;;10.19;94.96;99377.45;1588445;90;21869;-79
2022/10/20 05:15:44;;;;;;;22.73;14.50;;;;;;;10.29;94.70;99384.83;1634603;87;21256;-79
2022/10/20 05:18:54;;;;;;;26.37;13.25;;;;;;;10.51;93.81;99386.17;1617896;88;21834;-79
2022/10/20 05:22:01;;;;;;;20.02;12.33;;;;;;;10.49;93.59;99387.23;1624543;87;21229;-80
2022/10/20 05:25:08;;;;;;;18.02;12.03;;;;;;;10.51;93.48;99387.02;1576101;90;21216;-80
2022/10/20 05:28:15;;;;;;;26.07;13.25;;;;;;;10.60;93.22;99389.09;1589895;90;21231;-80
2022/10/20 05:31:15;;;;;;;19.83;12.53;;;;;;;10.69;92.87;99396.10;1608360;89;21212;-79
2022/10/20 05:34:21;;;;;;;18.92;10.85;;;;;;;10.88;91.82;99398.13;1641714;87;21299;-79
2022/10/20 05:37:27;;;;;;;17.05;12.28;;;;;;;10.91;91.59;99405.91;1615577;89;21217;-79
2022/10/20 05:40:34;;;;;;;16.40;11.03;;;;;;;10.82;91.72;99403.04;1596853;88;21215;-79
2022/10/20 05:43:39;;;;;;;18.35;10.38;;;;;;;10.78;91.52;99411.32;1632921;88;21272;-79
2022/10/20 05:46:44;;;;;;;21.05;13.70;;;;;;;10.79;91.34;99410.27;1616814;88;21223;-79
2022/10/20 05:49:50;;;;;;;20.55;13.50;;;;;;;10.79;90.92;99407.53;1614692;87;21268;-79
2022/10/20 05:52:55;;;;;;;16.20;11.80;;;;;;;10.68;90.74;99407.56;1610761;88;21251;-79
2022/10/20 05:56:01;;;;;;;13.78;10.75;;;;;;;10.67;90.29;99410.48;1615718;88;21876;-79
2022/10/20 05:59:06;;;;;;;12.43;9.90;;;;;;;10.45;90.29;99411.91;1616204;88;21238;-79
2022/10/20 06:02:13;;;;;;;15.40;10.65;;;;;;;10.58;89.39;99413.87;1615678;88;22285;-79
2022/10/20 06:05:20;;;;;;;16.15;10.48;;;;;;;10.48;89.54;99412.85;1610554;88;21564;-80
2022/10/20 06:08:25;;;;;;;17.57;9.40;;;;;;;10.41;90.09;99415.23;1612562;88;21311;-79
2022/10/20 06:11:31;;;;;;;14.00;9.85;;;;;;;10.33;90.54;99412.09;1608925;88;21267;-80
2022/10/20 06:14:37;;;;;;;8.93;7.92;;;;;;;10.22;90.97;99416.70;1599265;89;21279;-79
2022/10/20 06:17:42;;;;;;;12.90;7.90;;;;;;;10.38;90.79;99421.92;1583109;89;21237;-80
2022/10/20 06:20:48;;;;;;;5.92;2.95;;;;;;;10.41;90.80;99421.53;1598515;89;21776;-80
2022/10/20 06:23:48;;;;;;;1.30;1.05;;;;;;;10.32;89.34;99409.05;1609883;88;21839;-80
2022/10/20 06:26:43;;;;;;;1.20;1.10;;;;;;;10.05;88.21;99423.45;1579376;90;22133;-80
2022/10/20 06:29:48;;;;;;;;;;;;;;;9.80;87.71;99442.95;1579858;89;42458;-80
2022/10/20 06:32:53;;;;;;;1.65;1.07;;;;;;;9.64;87.85;99454.92;1566565;91;20267;-80
2022/10/20 06:36:00;;;;;;;0.90;0.90;;;;;;;9.87;87.16;99450.69;1578840;89;21903;-81
2022/10/20 06:39:05;;;;;;;1.67;1.10;;;;;;;9.78;86.71;99432.72;1591767;88;21239;-80
2022/10/20 06:42:11;;;;;;;1.25;1.15;;;;;;;9.53;86.98;99446.39;1596496;88;21213;-81
2022/10/20 06:45:17;;;;;;;2.35;1.10;;;;;;;9.62;87.72;99457.53;1596640;88;21591;-81
2022/10/20 06:48:25;;;;;;;1.20;1.10;;;;;;;9.89;86.06;99449.15;1571761;89;21344;-81
2022/10/20 06:51:33;;;;;;;0.80;0.80;;;;;;;10.08;84.97;99444.94;1588083;88;21269;-81
2022/10/20 06:54:39;;;;;;;1.20;1.00;;;;;;;9.78;84.88;99447.73;1592148;88;21228;-79
2022/10/20 06:57:51;;;;;;;1.85;1.30;;;;;;;9.77;85.27;99435.13;1655422;85;21804;-81
2022/10/20 07:01:17;;;;;;;6.03;1.17;;;;;;;9.46;85.63;99438.13;1644537;85;21325;-81
2022/10/20 07:04:24;;;;;;;3.20;1.07;;;;;;;9.52;86.26;99442.81;1641278;85;21252;-80
2022/10/20 07:07:25;;;;;;;1.70;1.47;;;;;;;9.47;86.21;99439.81;1646652;84;21220;-82
2022/10/20 07:10:18;;;;;;;1.40;1.00;;;;;;;9.51;85.70;99433.47;1639888;85;21276;-80
2022/10/20 07:13:04;;;;;;;2.33;1.40;;;;;;;9.24;86.79;99437.20;1629977;86;21304;-82
2022/10/20 07:16:01;;;;;;;2.83;1.10;;;;;;;9.12;87.90;99441.42;1628001;86;21244;-82
2022/10/20 07:19:08;;;;;;;1.92;1.50;;;;;;;9.10;88.20;99450.33;1625557;86;21224;-81
2022/10/20 07:22:13;;;;;;;1.80;1.30;;;;;;;9.16;88.01;99457.23;1602133;87;21268;-80
2022/10/20 07:25:20;;;;;;;3.98;1.20;;;;;;;8.95;88.70;99448.95;1624692;86;21866;-80
2022/10/20 07:28:26;;;;;;;2.87;1.40;;;;;;;8.83;88.58;99454.00;1632279;86;21228;-79
2022/10/20 07:31:39;;;;;;;1.55;1.05;;;;;;;9.00;87.60;99462.03;1635683;86;21733;-81
2022/10/20 07:34:45;;;;;;;3.47;1.45;;;;;;;8.85;87.89;99453.84;1604664;87;21345;-81
2022/10/20 07:37:54;;;;;;;3.02;1.17;;;;;;;8.71;88.56;99443.23;1609956;87;21262;-81
2022/10/20 07:40:59;;;;;;;4.25;1.37;;;;;;;8.87;87.89;99474.42;1630439;86;21261;-82
2022/10/20 07:44:07;;;;;;;4.83;1.40;;;;;;;8.85;87.57;99464.75;1627522;86;21411;-82
2022/10/20 07:47:14;;;;;;;;;;;;;;;8.96;87.08;99459.67;1629727;86;21268;-82
2022/10/20 07:50:21;;;;;;;2.83;1.55;;;;;;;8.57;87.60;99463.14;1643729;86;20674;-82
2022/10/20 07:53:28;;;;;;;2.85;1.47;;;;;;;8.41;88.87;99458.13;1633598;86;21363;-81
2022/10/20 07:56:40;;;;;;;4.95;2.20;;;;;;;8.69;87.81;99463.00;1636811;86;21201;-81
2022/10/20 07:59:45;;;;;;;4.20;1.82;;;;;;;8.78;86.06;99459.17;1612996;87;21262;-81
2022/10/20 08:02:52;;;;;;;1.82;1.40;;;;;;;8.56;85.79;99467.74;1610273;87;21231;-81
2022/10/20 08:05:57;;;;;;;4.78;1.92;;;;;;;8.44;86.23;99480.94;1640151;86;21334;-81
2022/10/20 08:09:04;;;;;;;3.65;2.33;;;;;;;8.07;86.54;99472.16;1608768;87;21803;-81
2022/10/20 08:12:12;;;;;;;3.85;2.20;;;;;;;7.90;86.73;99461.91;1615016;87;21393;-81
2022/10/20 08:15:18;;;;;;;2.77;1.57;;;;;;;7.81;87.49;99475.72;1613490;87;21197;-81
2022/10/20 08:18:23;;;;;;;8.08;2.20;;;;;;;7.69;87.06;99470.69;1643246;86;21283;-80
2022/10/20 08:21:32;;;;;;;4.05;2.20;;;;;;;7.88;86.10;99460.37;1645464;86;21183;-81
2022/10/20 08:24:38;;;;;;;1.60;1.47;;;;;;;7.79;85.53;99476.42;1629280;86;21211;-80
2022/10/20 08:27:44;;;;;;;2.15;1.40;;;;;;;7.80;84.88;99489.84;1629915;87;21270;-81
2022/10/20 08:30:49;;;;;;;4.10;1.98;;;;;;;7.99;83.67;99483.61;1645980;84;33139;-81
2022/10/20 08:33:56;;;;;;;8.68;2.50;;;;;;;8.18;82.92;99494.04;1667635;84;21266;-81
2022/10/20 08:37:03;;;;;;;4.35;2.62;;;;;;;8.21;82.19;99497.77;1659418;84;21282;-81
2022/10/20 08:40:11;;;;;;;5.85;2.40;;;;;;;8.14;81.92;99497.66;1663779;84;21323;-81
2022/10/20 08:43:24;;;;;;;5.70;2.58;;;;;;;8.16;82.77;99496.11;1657306;84;21245;-81
2022/10/20 08:46:35;;;;;;;6.12;3.00;;;;;;;8.23;83.00;99503.88;1667597;86;21204;-80
2022/10/20 08:49:40;;;;;;;;;;;;;;;8.20;83.41;99516.52;1655909;86;21894;-81
2022/10/20 08:52:47;;;;;;;6.17;3.50;;;;;;;8.22;83.27;99510.88;1662174;86;20211;-81
2022/10/20 08:55:52;;;;;;;4.42;2.67;;;;;;;8.19;82.77;99507.50;1661469;86;21264;-81
2022/10/20 08:58:58;;;;;;;6.65;2.90;;;;;;;8.25;82.96;99505.92;1659148;84;22606;-80
2022/10/20 09:02:04;;;;;;;6.55;2.87;;;;;;;8.20;83.32;99502.89;1649513;86;21175;-81
2022/10/20 09:05:12;;;;;;;4.80;3.00;;;;;;;8.12;83.92;99513.84;1658573;84;21313;-80
2022/10/20 09:08:19;;;;;;;9.40;2.70;;;;;;;8.03;82.97;99508.11;1654640;86;21180;-80
2022/10/20 09:11:35;;;;;;;3.77;2.72;;;;;;;7.96;82.12;99516.67;1656679;86;21260;-80
2022/10/20 09:14:43;;;;;;;4.33;1.92;;;;;;;7.90;82.30;99507.31;1656573;85;21236;-80
2022/10/20 09:17:59;;;;;;;5.05;2.58;;;;;;;7.96;82.38;99510.70;1656496;84;21547;-80
2022/10/20 09:21:23;;;;;;;10.55;3.65;;;;;;;7.89;82.20;99513.80;1653751;84;21262;-79
2022/10/20 09:24:29;;;;;;;9.55;3.83;;;;;;;7.97;81.97;99519.72;1659456;86;21202;-80
2022/10/20 09:27:41;;;;;;;7.03;3.77;;;;;;;7.92;81.80;99518.38;1640847;84;21270;-80
2022/10/20 09:30:47;;;;;;;7.05;4.62;;;;;;;8.02;81.34;99507.26;1634926;86;21211;-80
2022/10/20 09:33:53;;;;;;;8.23;4.37;;;;;;;8.03;80.90;99517.12;1649696;84;21268;-80
2022/10/20 09:37:03;;;;;;;8.48;5.92;;;;;;;8.30;80.63;99521.21;1649602;86;21251;-80
2022/10/20 09:40:09;;;;;;;9.55;6.08;;;;;;;8.40;81.08;99535.47;1651959;84;21932;-79
2022/10/20 09:43:17;;;;;;;8.18;5.45;;;;;;;8.52;81.07;99525.02;1656952;84;21278;-79
2022/10/20 09:46:27;;;;;;;6.25;3.12;;;;;;;8.50;81.47;99524.84;1652935;86;21204;-79
2022/10/20 09:49:42;;;;;;;3.60;1.67;;;;;;;8.47;82.22;99537.46;1650386;86;21188;-80
2022/10/20 09:52:48;;;;;;;1.10;1.00;;;;;;;8.60;83.15;99544.00;1661078;85;21777;-80
2022/10/20 09:55:54;;;;;;;0.72;0.72;;;;;;;8.72;82.28;99537.63;1638056;86;21212;-79
2022/10/20 09:59:01;;;;;;;0.70;0.70;;;;;;;8.71;82.29;99522.30;1660209;86;21269;-79
2022/10/20 10:02:11;;;;;;;0.50;0.50;;;;;;;8.55;82.23;99529.23;1649748;85;21213;-79
2022/10/20 10:05:26;;;;;;;0.57;0.50;;;;;;;8.55;81.51;99527.87;1648961;86;21257;-80
2022/10/20 10:08:36;;;;;;;0.40;0.40;;;;;;;8.40;81.72;99542.80;1646595;86;21187;-79
2022/10/20 10:11:42;;;;;;;0.90;0.47;;;;;;;8.27;80.51;99569.23;1652439;86;21202;-80
2022/10/20 10:15:08;;;;;;;0.68;0.53;;;;;;;8.32;80.05;99553.20;1651055;86;21214;-79
2022/10/20 10:18:23;;;;;;;1.52;0.70;;;;;;;8.31;79.56;99564.29;1651317;86;21222;-80
2022/10/20 10:21:29;;;;;;;2.40;0.75;;;;;;;8.51;79.59;99565.54;1652611;85;21206;-79
2022/10/20 10:24:52;;;;;;;3.15;0.70;;;;;;;8.45;79.67;99564.91;1646677;86;21329;-80
2022/10/20 10:28:10;;;;;;;1.57;0.50;;;;;;;8.44;79.38;99589.11;1631363;86;21184;-78
2022/10/20 10:31:29;;;;;;;0.75;0.60;;;;;;;8.24;78.30;99594.14;1641700;86;21236;-79
2022/10/20 10:35:16;;;;;;;1.62;0.80;;;;;;;8.16;78.55;99586.00;1648923;85;21241;-79
2022/10/20 10:38:23;;;;;;;0.40;0.40;;;;;;;8.19;78.51;99585.66;1638867;85;21256;-79
2022/10/20 10:41:45;;;;;;;1.20;0.70;;;;;;;8.26;78.39;99589.86;1647007;86;21804;-79
2022/10/20 10:45:25;;;;;;;2.58;0.60;;;;;;;8.29;78.39;99586.28;1637368;85;21216;-79
2022/10/20 10:48:54;;;;;;;0.93;0.53;;;;;;;8.30;79.37;99592.05;1647305;86;21252;-79
2022/10/20 10:52:27;;;;;;;3.30;0.60;;;;;;;8.25;77.68;99624.44;1642451;86;21565;-79
2022/10/20 10:55:37;;;;;;;2.77;0.72;;;;;;;8.21;78.06;99604.02;1650564;85;21202;-79
2022/10/20 10:58:55;;;;;;;0.60;0.60;;;;;;;8.20;78.60;99613.23;1644928;86;21174;-78
2022/10/20 11:02:46;;;;;;;1.27;0.62;;;;;;;8.04;78.74;99611.41;1656394;84;21318;-78
2022/10/20 11:06:13;;;;;;;0.47;0.47;;;;;;;7.88;77.45;99623.75;1654215;84;21303;-80
2022/10/20 11:09:33;;;;;;;2.45;0.80;;;;;;;7.53;77.63;99626.38;1658018;86;21257;-78
2022/10/20 11:13:04;;;;;;;2.10;0.68;;;;;;;7.65;78.02;99627.73;1650617;86;21809;-78
2022/10/20 11:16:33;;;;;;;1.65;0.80;;;;;;;7.37;79.35;99628.63;1663233;84;21781;-78
2022/10/20 11:19:49;;;;;;;2.35;0.90;;;;;;;7.55;79.69;99621.11;1659154;84;21263;-79
2022/10/20 11:23:35;;;;;;;1.20;0.65;;;;;;;7.41;80.10;99625.39;1652826;86;21795;-79
2022/10/20 11:26:42;;;;;;;1.85;0.70;;;;;;;7.11;82.18;99630.20;1654799;86;21277;-79
2022/10/20 11:30:13;;;;;;;0.75;0.60;;;;;;;7.30;81.52;99633.08;1663674;86;21954;-78
2022/10/20 11:33:26;;;;;;;1.45;0.80;;;;;;;6.93;82.56;99611.84;1648145;86;21501;-78
2022/10/20 11:36:36;;;;;;;2.47;0.72;;;;;;;6.78;83.62;99626.11;1634250;86;21821;-78
2022/10/20 11:39:48;;;;;;;0.70;0.60;;;;;;;6.88;82.95;99633.59;1633270;87;21265;-79
2022/10/20 11:43:29;;;;;;;1.25;0.80;;;;;;;6.69;83.22;99648.86;1603207;89;21232;-78
2022/10/20 11:46:41;;;;;;;;;;;;;;;6.60;83.58;99644.42;1611144;89;21406;-78
2022/10/20 11:49:46;;;;;;;0.70;0.70;;;;;;;6.54;83.88;99647.31;1633192;87;20262;-79
2022/10/20 11:53:27;;;;;;;6.37;0.65;;;;;;;6.48;84.21;99629.45;1634384;87;21262;-78
2022/10/20 11:57:10;;;;;;;1.12;0.80;;;;;;;6.54;84.42;99650.03;1584383;89;21256;-78
2022/10/20 12:00:33;;;;;;;1.00;0.60;;;;;;;6.69;83.80;99646.14;1603777;87;22351;-78
2022/10/20 12:04:01;;;;;;;3.20;0.80;;;;;;;6.77;82.30;99646.12;1621065;87;21245;-78
2022/10/20 12:07:39;;;;;;;1.75;0.70;;;;;;;6.85;83.38;99681.48;1632035;87;21914;-78
2022/10/20 12:11:21;;;;;;;0.88;0.72;;;;;;;6.78;83.41;99668.24;1634185;87;21258;-79
2022/10/20 12:14:45;;;;;;;2.10;1.10;;;;;;;6.65;83.53;99674.16;1634900;87;21309;-78
2022/10/20 12:17:55;;;;;;;1.70;1.00;;;;;;;6.62;84.93;99673.63;1635663;87;22428;-78
2022/10/20 12:21:07;;;;;;;1.47;1.07;;;;;;;6.62;85.49;99687.22;1634942;87;21962;-79
2022/10/20 12:24:34;;;;;;;1.90;1.62;;;;;;;6.40;86.90;99668.33;1635498;87;21240;-78
2022/10/20 12:27:40;;;;;;;2.40;1.50;;;;;;;6.66;86.52;99694.02;1635581;87;21232;-78
2022/10/20 12:30:48;;;;;;;2.00;1.52;;;;;;;6.34;88.03;99682.55;1634433;87;21272;-79
2022/10/20 12:34:03;;;;;;;2.05;1.55;;;;;;;6.68;87.38;99687.05;1635130;87;22454;-79
2022/10/20 12:37:17;;;;;;;2.58;1.95;;;;;;;6.65;87.29;99703.20;1635204;87;21241;-79
2022/10/20 12:40:32;;;;;;;1.72;1.40;;;;;;;6.64;87.63;99696.92;1634974;87;21320;-79
2022/10/20 12:43:42;;;;;;;1.20;1.10;;;;;;;6.59;87.45;99687.06;1635578;87;21232;-79
2022/10/20 12:47:04;;;;;;;1.35;1.12;;;;;;;6.57;86.87;99695.87;1635001;87;21253;-78
2022/10/20 12:50:31;;;;;;;0.95;0.90;;;;;;;6.38;86.76;99707.86;1635835;87;21248;-78
2022/10/20 12:53:36;;;;;;;3.98;1.32;;;;;;;6.12;87.06;99699.79;1636216;87;21252;-78
2022/10/20 12:56:45;;;;;;;1.30;1.20;;;;;;;6.11;86.91;99721.66;1634959;87;21779;-79
2022/10/20 12:59:50;;;;;;;2.17;1.30;;;;;;;6.02;87.38;99711.28;1635099;87;21240;-79
2022/10/20 13:03:01;;;;;;;2.83;1.40;;;;;;;6.19;86.25;99727.13;1632437;86;21296;-80
2022/10/20 13:06:10;;;;;;;1.62;1.52;;;;;;;6.05;86.63;99710.09;1629096;88;21780;-80
2022/10/20 13:09:26;;;;;;;4.78;1.87;;;;;;;5.99;86.88;99714.82;1610022;88;21313;-80
2022/10/20 13:12:34;;;;;;;2.55;1.67;;;;;;;5.96;86.60;99739.56;1628478;88;21273;-81
2022/10/20 13:15:51;;;;;;;2.45;2.05;;;;;;;5.85;86.37;99733.36;1627485;88;22474;-80
2022/10/20 13:18:57;;;;;;;2.60;1.87;;;;;;;5.84;86.59;99741.67;1628512;88;21711;-80
2022/10/20 13:22:03;;;;;;;6.90;1.87;;;;;;;5.74;87.29;99740.42;1595261;90;21296;-80
2022/10/20 13:25:13;;;;;;;2.67;2.30;;;;;;;5.77;87.69;99734.66;1622781;88;22493;-79
2022/10/20 13:28:25;;;;;;;2.72;1.90;;;;;;;5.71;88.32;99754.30;1621691;88;21233;-79
2022/10/20 13:31:41;;;;;;;3.35;2.08;;;;;;;5.74;88.49;99746.33;1620973;88;21249;-80
2022/10/20 13:35:05;;;;;;;4.55;2.87;;;;;;;5.71;88.34;99748.87;1621930;88;21273;-80
2022/10/20 13:38:24;;;;;;;3.70;2.98;;;;;;;5.73;88.63;99751.42;1622079;88;21233;-79
2022/10/20 13:41:48;;;;;;;5.12;3.85;;;;;;;5.71;88.83;99748.87;1621688;88;21256;-79
2022/10/20 13:45:21;;;;;;;4.20;3.80;;;;;;;5.58;89.63;99747.92;1623094;88;21225;-79
2022/10/20 13:49:02;;;;;;;3.52;3.22;;;;;;;5.69;89.83;99744.09;1621884;88;21955;-79
2022/10/20 13:52:13;;;;;;;3.72;3.30;;;;;;;5.71;90.46;99758.38;1622125;88;21285;-80
2022/10/20 13:55:32;;;;;;;4.70;4.20;;;;;;;5.70;91.18;99764.81;1623130;88;21277;-80
2022/10/20 13:58:37;;;;;;;7.22;4.25;;;;;;;5.75;91.56;99767.91;1623058;88;21265;-81
2022/10/20 14:01:43;;;;;;;5.30;4.65;;;;;;;5.79;91.91;99761.66;1622351;88;21257;-81
2022/10/20 14:04:48;;;;;;;6.58;4.85;;;;;;;5.84;91.96;99767.47;1622521;88;21257;-80
2022/10/20 14:07:53;;;;;;;6.67;5.30;;;;;;;5.90;92.01;99764.95;1623087;88;21222;-80
2022/10/20 14:11:07;;;;;;;7.20;5.78;;;;;;;6.04;91.55;99774.41;1623020;88;21293;-80
2022/10/20 14:14:12;;;;;;;8.73;4.97;;;;;;;5.94;92.35;99773.67;1621919;88;21791;-80
2022/10/20 14:17:30;;;;;;;6.72;5.35;;;;;;;6.02;92.56;99785.95;1622846;88;21265;-80
2022/10/20 14:20:40;;;;;;;8.68;6.47;;;;;;;6.09;92.87;99772.56;1623049;88;21218;-80
2022/10/20 14:23:49;;;;;;;7.97;7.05;;;;;;;6.15;93.09;99787.70;1623074;88;21225;-81
2022/10/20 14:26:56;;;;;;;8.33;6.47;;;;;;;6.28;92.91;99789.98;1623098;88;21269;-81
2022/10/20 14:30:02;;;;;;;8.35;7.55;;;;;;;6.22;93.54;99787.08;1623054;88;21220;-80
2022/10/20 14:33:08;;;;;;;10.03;8.93;;;;;;;6.29;94.00;99793.04;1621797;88;21261;-79
2022/10/20 14:36:08;;;;;;;10.30;8.88;;;;;;;6.40;94.04;99800.93;1621986;88;21245;-79
2022/10/20 14:39:13;;;;;;;11.80;9.50;;;;;;;6.39;94.50;99795.13;1623028;88;21273;-79
2022/10/20 14:42:31;;;;;;;10.28;9.08;;;;;;;6.60;93.80;99806.11;1622452;88;21389;-79
2022/10/20 14:45:38;;;;;;;12.98;9.28;;;;;;;6.59;93.85;99807.14;1623167;88;21229;-79
2022/10/20 14:48:49;;;;;;;10.08;9.08;;;;;;;6.59;94.39;99809.86;1622453;88;21378;-79
2022/10/20 14:52:06;;;;;;;10.65;9.25;;;;;;;6.60;93.91;99811.55;1622962;88;21800;-79
2022/10/20 14:55:39;;;;;;;12.37;9.20;;;;;;;6.64;93.49;99812.93;1621640;88;21352;-80